sensor_id;sensor_type;location;lat;lon;timestamp;P1;durP1;ratioP1;P2;durP2;ratioP2
16660;SDS011;8444;52.012;5.048;2023-05-24T00:00:07;9.27;;;3.20;;
16660;SDS011;8444;52.012;5.048;2023-05-24T00:02:37;7.33;;;3.03;;
16660;SDS011;8444;52.012;5.048;2023-05-24T00:05:05;8.83;;;3.10;;
16660;SDS011;8444;52.012;5.048;2023-05-24T00:07:31;6.73;;;2.93;;
16660;SDS011;8444;52.012;5.048;2023-05-24T00:09:57;9.30;;;3.10;;
16660;SDS011;8444;52.012;5.048;2023-05-24T00:12:22;15.97;;;3.33;;
16660;SDS011;8444;52.012;5.048;2023-05-24T00:14:47;9.73;;;4.10;;
16660;SDS011;8444;52.012;5.048;2023-05-24T00:17:12;13.00;;;4.13;;
16660;SDS011;8444;52.012;5.048;2023-05-24T00:19:38;8.27;;;3.63;;
16660;SDS011;8444;52.012;5.048;2023-05-24T00:22:03;9.57;;;4.37;;
16660;SDS011;8444;52.012;5.048;2023-05-24T00:24:28;7.47;;;3.40;;
16660;SDS011;8444;52.012;5.048;2023-05-24T00:26:53;9.03;;;3.67;;
16660;SDS011;8444;52.012;5.048;2023-05-24T00:29:18;10.83;;;2.80;;
16660;SDS011;8444;52.012;5.048;2023-05-24T00:31:44;6.13;;;2.63;;
16660;SDS011;8444;52.012;5.048;2023-05-24T00:34:09;7.70;;;2.87;;
16660;SDS011;8444;52.012;5.048;2023-05-24T00:36:34;16.90;;;3.83;;
16660;SDS011;8444;52.012;5.048;2023-05-24T00:39:02;6.87;;;3.77;;
16660;SDS011;8444;52.012;5.048;2023-05-24T00:41:27;6.70;;;3.67;;
16660;SDS011;8444;52.012;5.048;2023-05-24T00:43:52;11.87;;;3.63;;
16660;SDS011;8444;52.012;5.048;2023-05-24T00:46:19;12.63;;;3.70;;
16660;SDS011;8444;52.012;5.048;2023-05-24T00:48:46;8.10;;;3.40;;
16660;SDS011;8444;52.012;5.048;2023-05-24T00:51:12;15.03;;;3.50;;
16660;SDS011;8444;52.012;5.048;2023-05-24T00:53:38;14.63;;;4.40;;
16660;SDS011;8444;52.012;5.048;2023-05-24T00:56:04;13.50;;;3.67;;
16660;SDS011;8444;52.012;5.048;2023-05-24T00:58:30;12.43;;;4.00;;
16660;SDS011;8444;52.012;5.048;2023-05-24T01:00:57;14.00;;;4.90;;
16660;SDS011;8444;52.012;5.048;2023-05-24T01:03:23;9.27;;;3.43;;
16660;SDS011;8444;52.012;5.048;2023-05-24T01:05:49;13.17;;;3.50;;
16660;SDS011;8444;52.012;5.048;2023-05-24T01:08:21;9.10;;;3.90;;
16660;SDS011;8444;52.012;5.048;2023-05-24T01:10:53;13.33;;;3.77;;
16660;SDS011;8444;52.012;5.048;2023-05-24T01:13:29;13.07;;;3.63;;
16660;SDS011;8444;52.012;5.048;2023-05-24T01:15:58;10.37;;;3.87;;
16660;SDS011;8444;52.012;5.048;2023-05-24T01:18:25;11.33;;;4.00;;
16660;SDS011;8444;52.012;5.048;2023-05-24T01:21:34;10.97;;;3.27;;
16660;SDS011;8444;52.012;5.048;2023-05-24T01:24:31;11.77;;;3.60;;
16660;SDS011;8444;52.012;5.048;2023-05-24T01:26:36;10.20;;;3.67;;
16660;SDS011;8444;52.012;5.048;2023-05-24T01:29:03;9.77;;;4.17;;
16660;SDS011;8444;52.012;5.048;2023-05-24T01:31:28;11.47;;;3.67;;
16660;SDS011;8444;52.012;5.048;2023-05-24T01:33:54;7.87;;;3.50;;
16660;SDS011;8444;52.012;5.048;2023-05-24T01:36:19;11.47;;;3.60;;
16660;SDS011;8444;52.012;5.048;2023-05-24T01:38:45;9.53;;;3.47;;
16660;SDS011;8444;52.012;5.048;2023-05-24T01:41:15;5.87;;;3.23;;
16660;SDS011;8444;52.012;5.048;2023-05-24T01:43:42;9.83;;;4.37;;
16660;SDS011;8444;52.012;5.048;2023-05-24T01:49:20;9.77;;;3.87;;
16660;SDS011;8444;52.012;5.048;2023-05-24T01:54:24;12.43;;;3.43;;
16660;SDS011;8444;52.012;5.048;2023-05-24T01:56:51;10.17;;;3.73;;
16660;SDS011;8444;52.012;5.048;2023-05-24T01:59:16;14.00;;;4.13;;
16660;SDS011;8444;52.012;5.048;2023-05-24T02:01:42;10.63;;;4.17;;
16660;SDS011;8444;52.012;5.048;2023-05-24T02:04:07;12.23;;;4.60;;
16660;SDS011;8444;52.012;5.048;2023-05-24T02:06:32;7.20;;;4.13;;
16660;SDS011;8444;52.012;5.048;2023-05-24T02:08:57;18.10;;;4.53;;
16660;SDS011;8444;52.012;5.048;2023-05-24T02:11:23;14.27;;;4.70;;
16660;SDS011;8444;52.012;5.048;2023-05-24T02:13:48;12.13;;;4.83;;
16660;SDS011;8444;52.012;5.048;2023-05-24T02:16:13;9.57;;;4.37;;
16660;SDS011;8444;52.012;5.048;2023-05-24T02:18:38;11.80;;;3.50;;
16660;SDS011;8444;52.012;5.048;2023-05-24T02:21:04;10.90;;;4.33;;
16660;SDS011;8444;52.012;5.048;2023-05-24T02:23:29;10.10;;;4.40;;
16660;SDS011;8444;52.012;5.048;2023-05-24T02:25:55;10.50;;;5.10;;
16660;SDS011;8444;52.012;5.048;2023-05-24T02:28:20;11.53;;;4.10;;
16660;SDS011;8444;52.012;5.048;2023-05-24T02:30:45;13.27;;;3.80;;
16660;SDS011;8444;52.012;5.048;2023-05-24T02:33:11;12.30;;;4.40;;
16660;SDS011;8444;52.012;5.048;2023-05-24T02:35:36;13.47;;;4.83;;
16660;SDS011;8444;52.012;5.048;2023-05-24T02:38:02;9.57;;;4.33;;
16660;SDS011;8444;52.012;5.048;2023-05-24T02:40:30;6.70;;;3.97;;
16660;SDS011;8444;52.012;5.048;2023-05-24T02:42:55;10.07;;;4.40;;
16660;SDS011;8444;52.012;5.048;2023-05-24T02:45:20;9.67;;;4.47;;
16660;SDS011;8444;52.012;5.048;2023-05-24T02:47:46;16.47;;;5.20;;
16660;SDS011;8444;52.012;5.048;2023-05-24T02:50:11;16.57;;;5.03;;
16660;SDS011;8444;52.012;5.048;2023-05-24T02:52:36;10.00;;;4.20;;
16660;SDS011;8444;52.012;5.048;2023-05-24T02:55:01;11.33;;;4.33;;
16660;SDS011;8444;52.012;5.048;2023-05-24T02:57:26;10.70;;;4.63;;
16660;SDS011;8444;52.012;5.048;2023-05-24T02:59:52;13.00;;;4.93;;
16660;SDS011;8444;52.012;5.048;2023-05-24T03:02:18;16.97;;;4.23;;
16660;SDS011;8444;52.012;5.048;2023-05-24T03:04:43;8.67;;;4.47;;
16660;SDS011;8444;52.012;5.048;2023-05-24T03:07:08;13.90;;;4.73;;
16660;SDS011;8444;52.012;5.048;2023-05-24T03:09:34;12.63;;;4.27;;
16660;SDS011;8444;52.012;5.048;2023-05-24T03:11:59;11.23;;;4.33;;
16660;SDS011;8444;52.012;5.048;2023-05-24T03:14:25;10.97;;;3.63;;
16660;SDS011;8444;52.012;5.048;2023-05-24T03:16:50;14.90;;;4.87;;
16660;SDS011;8444;52.012;5.048;2023-05-24T03:19:16;11.87;;;4.53;;
16660;SDS011;8444;52.012;5.048;2023-05-24T03:21:42;14.43;;;4.43;;
16660;SDS011;8444;52.012;5.048;2023-05-24T03:24:07;9.80;;;4.43;;
16660;SDS011;8444;52.012;5.048;2023-05-24T03:26:33;17.13;;;5.10;;
16660;SDS011;8444;52.012;5.048;2023-05-24T03:28:58;13.67;;;4.70;;
16660;SDS011;8444;52.012;5.048;2023-05-24T03:31:23;10.60;;;4.50;;
16660;SDS011;8444;52.012;5.048;2023-05-24T03:33:50;23.80;;;4.90;;
16660;SDS011;8444;52.012;5.048;2023-05-24T03:36:15;9.30;;;4.17;;
16660;SDS011;8444;52.012;5.048;2023-05-24T03:38:40;13.93;;;4.43;;
16660;SDS011;8444;52.012;5.048;2023-05-24T03:41:06;14.30;;;4.37;;
16660;SDS011;8444;52.012;5.048;2023-05-24T03:43:31;9.83;;;4.77;;
16660;SDS011;8444;52.012;5.048;2023-05-24T03:45:56;10.53;;;3.63;;
16660;SDS011;8444;52.012;5.048;2023-05-24T03:48:21;10.07;;;4.00;;
16660;SDS011;8444;52.012;5.048;2023-05-24T03:50:47;9.70;;;4.33;;
16660;SDS011;8444;52.012;5.048;2023-05-24T03:53:12;12.80;;;4.47;;
16660;SDS011;8444;52.012;5.048;2023-05-24T03:55:37;19.40;;;7.20;;
16660;SDS011;8444;52.012;5.048;2023-05-24T03:58:02;17.07;;;5.20;;
16660;SDS011;8444;52.012;5.048;2023-05-24T04:00:28;16.17;;;4.90;;
16660;SDS011;8444;52.012;5.048;2023-05-24T04:02:53;13.67;;;4.40;;
16660;SDS011;8444;52.012;5.048;2023-05-24T04:05:19;12.27;;;4.70;;
16660;SDS011;8444;52.012;5.048;2023-05-24T04:07:45;12.33;;;4.33;;
16660;SDS011;8444;52.012;5.048;2023-05-24T04:10:10;11.57;;;4.23;;
16660;SDS011;8444;52.012;5.048;2023-05-24T04:12:35;12.27;;;4.43;;
16660;SDS011;8444;52.012;5.048;2023-05-24T04:15:01;15.40;;;5.13;;
16660;SDS011;8444;52.012;5.048;2023-05-24T04:17:26;6.63;;;3.83;;
16660;SDS011;8444;52.012;5.048;2023-05-24T04:19:56;10.73;;;4.47;;
16660;SDS011;8444;52.012;5.048;2023-05-24T04:22:21;17.10;;;5.90;;
16660;SDS011;8444;52.012;5.048;2023-05-24T04:24:47;10.43;;;3.93;;
16660;SDS011;8444;52.012;5.048;2023-05-24T04:27:13;15.47;;;5.03;;
16660;SDS011;8444;52.012;5.048;2023-05-24T04:29:38;8.40;;;4.40;;
16660;SDS011;8444;52.012;5.048;2023-05-24T04:32:04;12.77;;;4.30;;
16660;SDS011;8444;52.012;5.048;2023-05-24T04:34:30;15.93;;;4.57;;
16660;SDS011;8444;52.012;5.048;2023-05-24T04:36:58;13.83;;;4.00;;
16660;SDS011;8444;52.012;5.048;2023-05-24T04:39:23;11.77;;;4.10;;
16660;SDS011;8444;52.012;5.048;2023-05-24T04:41:48;14.63;;;4.00;;
16660;SDS011;8444;52.012;5.048;2023-05-24T04:44:19;13.83;;;3.67;;
16660;SDS011;8444;52.012;5.048;2023-05-24T04:46:44;11.23;;;4.13;;
16660;SDS011;8444;52.012;5.048;2023-05-24T04:49:09;7.47;;;3.77;;
16660;SDS011;8444;52.012;5.048;2023-05-24T04:51:34;7.97;;;3.67;;
16660;SDS011;8444;52.012;5.048;2023-05-24T04:54:02;10.67;;;3.77;;
16660;SDS011;8444;52.012;5.048;2023-05-24T04:56:32;14.73;;;4.00;;
16660;SDS011;8444;52.012;5.048;2023-05-24T04:58:57;11.43;;;3.87;;
16660;SDS011;8444;52.012;5.048;2023-05-24T05:01:22;14.93;;;4.00;;
16660;SDS011;8444;52.012;5.048;2023-05-24T05:03:48;9.80;;;3.90;;
16660;SDS011;8444;52.012;5.048;2023-05-24T05:06:13;9.33;;;3.43;;
16660;SDS011;8444;52.012;5.048;2023-05-24T05:08:39;9.23;;;3.57;;
16660;SDS011;8444;52.012;5.048;2023-05-24T05:11:04;18.60;;;3.50;;
16660;SDS011;8444;52.012;5.048;2023-05-24T05:13:29;12.27;;;4.13;;
16660;SDS011;8444;52.012;5.048;2023-05-24T05:15:54;12.20;;;4.23;;
16660;SDS011;8444;52.012;5.048;2023-05-24T05:18:20;12.90;;;3.77;;
16660;SDS011;8444;52.012;5.048;2023-05-24T05:20:45;10.63;;;4.30;;
16660;SDS011;8444;52.012;5.048;2023-05-24T05:23:10;10.43;;;4.10;;
16660;SDS011;8444;52.012;5.048;2023-05-24T05:25:36;9.13;;;3.87;;
16660;SDS011;8444;52.012;5.048;2023-05-24T05:28:01;9.17;;;5.17;;
16660;SDS011;8444;52.012;5.048;2023-05-24T05:30:26;14.13;;;3.70;;
16660;SDS011;8444;52.012;5.048;2023-05-24T05:32:51;13.03;;;4.00;;
16660;SDS011;8444;52.012;5.048;2023-05-24T05:35:16;16.70;;;5.03;;
16660;SDS011;8444;52.012;5.048;2023-05-24T05:37:42;8.70;;;4.03;;
16660;SDS011;8444;52.012;5.048;2023-05-24T05:40:07;10.90;;;4.30;;
16660;SDS011;8444;52.012;5.048;2023-05-24T05:42:32;15.37;;;4.00;;
16660;SDS011;8444;52.012;5.048;2023-05-24T05:44:57;10.13;;;4.10;;
16660;SDS011;8444;52.012;5.048;2023-05-24T05:47:22;9.27;;;4.40;;
16660;SDS011;8444;52.012;5.048;2023-05-24T05:49:48;13.53;;;5.07;;
16660;SDS011;8444;52.012;5.048;2023-05-24T05:52:13;14.20;;;4.43;;
16660;SDS011;8444;52.012;5.048;2023-05-24T05:54:38;13.87;;;4.50;;
16660;SDS011;8444;52.012;5.048;2023-05-24T05:57:03;13.00;;;3.53;;
16660;SDS011;8444;52.012;5.048;2023-05-24T05:59:29;16.23;;;4.55;;
16660;SDS011;8444;52.012;5.048;2023-05-24T06:01:55;15.27;;;5.18;;
16660;SDS011;8444;52.012;5.048;2023-05-24T06:04:21;12.18;;;4.18;;
16660;SDS011;8444;52.012;5.048;2023-05-24T06:06:46;8.85;;;4.38;;
16660;SDS011;8444;52.012;5.048;2023-05-24T06:09:14;19.10;;;5.50;;
16660;SDS011;8444;52.012;5.048;2023-05-24T06:11:39;14.75;;;4.07;;
16660;SDS011;8444;52.012;5.048;2023-05-24T06:14:08;13.57;;;4.30;;
16660;SDS011;8444;52.012;5.048;2023-05-24T06:16:35;12.32;;;5.00;;
16660;SDS011;8444;52.012;5.048;2023-05-24T06:19:05;14.50;;;5.25;;
16660;SDS011;8444;52.012;5.048;2023-05-24T06:24:03;11.57;;;4.60;;
16660;SDS011;8444;52.012;5.048;2023-05-24T06:26:28;11.75;;;5.18;;
16660;SDS011;8444;52.012;5.048;2023-05-24T06:28:54;11.25;;;3.92;;
16660;SDS011;8444;52.012;5.048;2023-05-24T06:31:19;12.02;;;4.90;;
16660;SDS011;8444;52.012;5.048;2023-05-24T06:33:45;12.00;;;4.00;;
16660;SDS011;8444;52.012;5.048;2023-05-24T06:36:10;12.80;;;4.43;;
16660;SDS011;8444;52.012;5.048;2023-05-24T06:38:35;9.13;;;3.50;;
16660;SDS011;8444;52.012;5.048;2023-05-24T06:41:00;12.23;;;4.30;;
16660;SDS011;8444;52.012;5.048;2023-05-24T06:43:26;13.52;;;3.88;;
16660;SDS011;8444;52.012;5.048;2023-05-24T06:45:51;12.93;;;3.40;;
16660;SDS011;8444;52.012;5.048;2023-05-24T06:48:16;11.32;;;3.42;;
16660;SDS011;8444;52.012;5.048;2023-05-24T06:50:41;9.20;;;3.83;;
16660;SDS011;8444;52.012;5.048;2023-05-24T06:53:07;11.32;;;3.60;;
16660;SDS011;8444;52.012;5.048;2023-05-24T06:55:32;9.45;;;4.00;;
16660;SDS011;8444;52.012;5.048;2023-05-24T06:57:57;12.20;;;4.10;;
16660;SDS011;8444;52.012;5.048;2023-05-24T07:00:23;12.18;;;3.75;;
16660;SDS011;8444;52.012;5.048;2023-05-24T07:02:48;16.02;;;3.83;;
16660;SDS011;8444;52.012;5.048;2023-05-24T07:05:13;11.27;;;4.05;;
16660;SDS011;8444;52.012;5.048;2023-05-24T07:07:39;8.23;;;3.20;;
16660;SDS011;8444;52.012;5.048;2023-05-24T07:10:07;9.77;;;2.95;;
16660;SDS011;8444;52.012;5.048;2023-05-24T07:12:32;11.65;;;2.72;;
16660;SDS011;8444;52.012;5.048;2023-05-24T07:14:58;7.95;;;2.67;;
16660;SDS011;8444;52.012;5.048;2023-05-24T07:17:23;7.85;;;2.80;;
16660;SDS011;8444;52.012;5.048;2023-05-24T07:19:48;9.30;;;2.70;;
16660;SDS011;8444;52.012;5.048;2023-05-24T07:22:13;11.00;;;3.20;;
16660;SDS011;8444;52.012;5.048;2023-05-24T07:24:39;7.30;;;2.47;;
16660;SDS011;8444;52.012;5.048;2023-05-24T07:27:04;5.93;;;2.75;;
16660;SDS011;8444;52.012;5.048;2023-05-24T07:29:29;9.93;;;2.92;;
16660;SDS011;8444;52.012;5.048;2023-05-24T07:31:54;12.02;;;3.78;;
16660;SDS011;8444;52.012;5.048;2023-05-24T07:34:20;7.82;;;3.65;;
16660;SDS011;8444;52.012;5.048;2023-05-24T07:36:46;9.02;;;3.08;;
16660;SDS011;8444;52.012;5.048;2023-05-24T07:39:12;17.25;;;4.05;;
16660;SDS011;8444;52.012;5.048;2023-05-24T07:41:39;7.55;;;3.13;;
16660;SDS011;8444;52.012;5.048;2023-05-24T07:44:05;11.85;;;3.40;;
16660;SDS011;8444;52.012;5.048;2023-05-24T07:46:30;8.95;;;3.67;;
16660;SDS011;8444;52.012;5.048;2023-05-24T07:48:55;8.18;;;3.15;;
16660;SDS011;8444;52.012;5.048;2023-05-24T07:51:20;11.63;;;3.58;;
16660;SDS011;8444;52.012;5.048;2023-05-24T07:53:46;6.82;;;3.00;;
16660;SDS011;8444;52.012;5.048;2023-05-24T07:56:11;6.95;;;2.83;;
16660;SDS011;8444;52.012;5.048;2023-05-24T07:58:36;8.85;;;2.65;;
16660;SDS011;8444;52.012;5.048;2023-05-24T08:01:04;8.93;;;3.97;;
16660;SDS011;8444;52.012;5.048;2023-05-24T08:03:30;9.75;;;2.72;;
16660;SDS011;8444;52.012;5.048;2023-05-24T08:05:56;11.70;;;2.80;;
16660;SDS011;8444;52.012;5.048;2023-05-24T08:08:21;5.97;;;2.35;;
16660;SDS011;8444;52.012;5.048;2023-05-24T08:10:47;7.40;;;2.13;;
16660;SDS011;8444;52.012;5.048;2023-05-24T08:13:12;9.98;;;2.88;;
16660;SDS011;8444;52.012;5.048;2023-05-24T08:15:37;5.73;;;2.30;;
16660;SDS011;8444;52.012;5.048;2023-05-24T08:18:02;8.10;;;2.73;;
16660;SDS011;8444;52.012;5.048;2023-05-24T08:20:29;7.90;;;2.28;;
16660;SDS011;8444;52.012;5.048;2023-05-24T08:22:54;6.35;;;2.10;;
16660;SDS011;8444;52.012;5.048;2023-05-24T08:25:19;11.07;;;2.50;;
16660;SDS011;8444;52.012;5.048;2023-05-24T08:27:45;5.40;;;2.15;;
16660;SDS011;8444;52.012;5.048;2023-05-24T08:30:10;6.22;;;2.20;;
16660;SDS011;8444;52.012;5.048;2023-05-24T08:32:37;7.97;;;2.65;;
16660;SDS011;8444;52.012;5.048;2023-05-24T08:35:03;5.32;;;1.90;;
16660;SDS011;8444;52.012;5.048;2023-05-24T08:37:28;10.20;;;2.33;;
16660;SDS011;8444;52.012;5.048;2023-05-24T08:39:55;5.35;;;2.10;;
16660;SDS011;8444;52.012;5.048;2023-05-24T08:42:21;8.02;;;2.22;;
16660;SDS011;8444;52.012;5.048;2023-05-24T08:44:51;5.82;;;2.30;;
16660;SDS011;8444;52.012;5.048;2023-05-24T08:47:17;3.83;;;2.15;;
16660;SDS011;8444;52.012;5.048;2023-05-24T08:49:43;4.70;;;2.33;;
16660;SDS011;8444;52.012;5.048;2023-05-24T08:52:10;10.25;;;2.47;;
16660;SDS011;8444;52.012;5.048;2023-05-24T08:54:36;5.63;;;2.05;;
16660;SDS011;8444;52.012;5.048;2023-05-24T08:57:02;6.68;;;1.80;;
16660;SDS011;8444;52.012;5.048;2023-05-24T08:59:27;8.10;;;2.80;;
16660;SDS011;8444;52.012;5.048;2023-05-24T09:01:52;7.60;;;1.98;;
16660;SDS011;8444;52.012;5.048;2023-05-24T09:04:18;6.65;;;2.17;;
16660;SDS011;8444;52.012;5.048;2023-05-24T09:06:44;10.02;;;2.53;;
16660;SDS011;8444;52.012;5.048;2023-05-24T09:09:09;7.05;;;2.30;;
16660;SDS011;8444;52.012;5.048;2023-05-24T09:11:35;9.85;;;2.60;;
16660;SDS011;8444;52.012;5.048;2023-05-24T09:14:01;6.93;;;2.30;;
16660;SDS011;8444;52.012;5.048;2023-05-24T09:16:26;5.20;;;2.08;;
16660;SDS011;8444;52.012;5.048;2023-05-24T09:18:51;7.88;;;1.98;;
16660;SDS011;8444;52.012;5.048;2023-05-24T09:21:17;3.80;;;1.40;;
16660;SDS011;8444;52.012;5.048;2023-05-24T09:23:42;10.00;;;2.33;;
16660;SDS011;8444;52.012;5.048;2023-05-24T09:26:09;6.88;;;1.88;;
16660;SDS011;8444;52.012;5.048;2023-05-24T09:28:34;11.88;;;2.42;;
16660;SDS011;8444;52.012;5.048;2023-05-24T09:31:00;7.38;;;2.08;;
16660;SDS011;8444;52.012;5.048;2023-05-24T09:33:27;4.85;;;2.42;;
16660;SDS011;8444;52.012;5.048;2023-05-24T09:35:55;10.00;;;3.95;;
16660;SDS011;8444;52.012;5.048;2023-05-24T09:38:21;4.95;;;2.17;;
16660;SDS011;8444;52.012;5.048;2023-05-24T09:40:47;9.32;;;2.20;;
16660;SDS011;8444;52.012;5.048;2023-05-24T09:43:21;8.20;;;2.50;;
16660;SDS011;8444;52.012;5.048;2023-05-24T09:45:46;7.72;;;3.20;;
16660;SDS011;8444;52.012;5.048;2023-05-24T09:48:13;3.92;;;1.88;;
16660;SDS011;8444;52.012;5.048;2023-05-24T09:50:39;7.90;;;2.63;;
16660;SDS011;8444;52.012;5.048;2023-05-24T09:53:04;6.35;;;2.33;;
16660;SDS011;8444;52.012;5.048;2023-05-24T09:55:30;8.65;;;2.53;;
16660;SDS011;8444;52.012;5.048;2023-05-24T09:58:06;8.77;;;2.22;;
16660;SDS011;8444;52.012;5.048;2023-05-24T10:00:39;6.93;;;2.42;;
16660;SDS011;8444;52.012;5.048;2023-05-24T10:03:06;7.90;;;2.72;;
16660;SDS011;8444;52.012;5.048;2023-05-24T10:05:31;7.53;;;3.33;;
16660;SDS011;8444;52.012;5.048;2023-05-24T10:07:57;8.73;;;3.00;;
16660;SDS011;8444;52.012;5.048;2023-05-24T10:10:25;5.38;;;2.28;;
16660;SDS011;8444;52.012;5.048;2023-05-24T10:12:50;6.50;;;2.42;;
16660;SDS011;8444;52.012;5.048;2023-05-24T10:15:16;9.68;;;2.60;;
16660;SDS011;8444;52.012;5.048;2023-05-24T10:17:41;7.70;;;2.22;;
16660;SDS011;8444;52.012;5.048;2023-05-24T10:20:06;12.18;;;2.92;;
16660;SDS011;8444;52.012;5.048;2023-05-24T10:22:36;5.88;;;2.25;;
16660;SDS011;8444;52.012;5.048;2023-05-24T10:25:03;9.48;;;2.42;;
16660;SDS011;8444;52.012;5.048;2023-05-24T10:27:30;9.93;;;2.72;;
16660;SDS011;8444;52.012;5.048;2023-05-24T10:30:02;7.70;;;2.78;;
16660;SDS011;8444;52.012;5.048;2023-05-24T10:32:30;6.15;;;2.25;;
16660;SDS011;8444;52.012;5.048;2023-05-24T10:34:59;8.95;;;2.55;;
16660;SDS011;8444;52.012;5.048;2023-05-24T10:37:24;8.18;;;2.70;;
16660;SDS011;8444;52.012;5.048;2023-05-24T10:39:51;5.47;;;2.40;;
16660;SDS011;8444;52.012;5.048;2023-05-24T10:42:16;9.00;;;2.53;;
16660;SDS011;8444;52.012;5.048;2023-05-24T10:44:42;8.38;;;2.42;;
16660;SDS011;8444;52.012;5.048;2023-05-24T10:49:35;5.70;;;2.53;;
16660;SDS011;8444;52.012;5.048;2023-05-24T10:52:01;5.43;;;2.47;;
16660;SDS011;8444;52.012;5.048;2023-05-24T10:54:30;7.78;;;2.63;;
16660;SDS011;8444;52.012;5.048;2023-05-24T10:56:59;7.85;;;2.70;;
16660;SDS011;8444;52.012;5.048;2023-05-24T11:01:55;6.40;;;2.35;;
16660;SDS011;8444;52.012;5.048;2023-05-24T11:04:21;7.90;;;2.95;;
16660;SDS011;8444;52.012;5.048;2023-05-24T11:07:06;6.00;;;2.33;;
16660;SDS011;8444;52.012;5.048;2023-05-24T11:09:33;7.10;;;2.63;;
16660;SDS011;8444;52.012;5.048;2023-05-24T11:12:00;5.53;;;2.40;;
16660;SDS011;8444;52.012;5.048;2023-05-24T11:14:31;7.15;;;2.70;;
16660;SDS011;8444;52.012;5.048;2023-05-24T11:16:58;6.03;;;2.58;;
16660;SDS011;8444;52.012;5.048;2023-05-24T11:19:30;6.45;;;2.20;;
16660;SDS011;8444;52.012;5.048;2023-05-24T11:22:00;10.10;;;3.20;;
16660;SDS011;8444;52.012;5.048;2023-05-24T11:24:26;10.30;;;3.53;;
16660;SDS011;8444;52.012;5.048;2023-05-24T11:26:51;10.00;;;2.60;;
16660;SDS011;8444;52.012;5.048;2023-05-24T11:29:17;6.50;;;2.58;;
16660;SDS011;8444;52.012;5.048;2023-05-24T11:34:13;6.95;;;2.20;;
16660;SDS011;8444;52.012;5.048;2023-05-24T11:36:38;7.07;;;2.65;;
16660;SDS011;8444;52.012;5.048;2023-05-24T11:39:06;9.13;;;2.75;;
16660;SDS011;8444;52.012;5.048;2023-05-24T11:41:33;6.40;;;2.45;;
16660;SDS011;8444;52.012;5.048;2023-05-24T11:43:59;10.50;;;2.65;;
16660;SDS011;8444;52.012;5.048;2023-05-24T11:46:24;8.60;;;2.33;;
16660;SDS011;8444;52.012;5.048;2023-05-24T11:48:56;11.20;;;2.40;;
16660;SDS011;8444;52.012;5.048;2023-05-24T11:51:31;4.88;;;2.38;;
16660;SDS011;8444;52.012;5.048;2023-05-24T11:53:57;8.20;;;3.15;;
16660;SDS011;8444;52.012;5.048;2023-05-24T11:56:23;6.75;;;2.17;;
16660;SDS011;8444;52.012;5.048;2023-05-24T11:58:49;5.80;;;2.10;;
16660;SDS011;8444;52.012;5.048;2023-05-24T12:01:23;7.60;;;2.00;;
16660;SDS011;8444;52.012;5.048;2023-05-24T12:03:49;7.50;;;2.28;;
16660;SDS011;8444;52.012;5.048;2023-05-24T12:06:15;6.57;;;2.85;;
16660;SDS011;8444;52.012;5.048;2023-05-24T12:08:40;5.63;;;2.15;;
16660;SDS011;8444;52.012;5.048;2023-05-24T12:11:05;6.00;;;1.98;;
16660;SDS011;8444;52.012;5.048;2023-05-24T12:13:31;8.43;;;2.30;;
16660;SDS011;8444;52.012;5.048;2023-05-24T12:15:56;5.43;;;2.70;;
16660;SDS011;8444;52.012;5.048;2023-05-24T12:18:22;6.85;;;2.50;;
16660;SDS011;8444;52.012;5.048;2023-05-24T12:20:48;6.10;;;2.45;;
16660;SDS011;8444;52.012;5.048;2023-05-24T12:23:13;9.10;;;2.08;;
16660;SDS011;8444;52.012;5.048;2023-05-24T12:25:39;7.47;;;1.88;;
16660;SDS011;8444;52.012;5.048;2023-05-24T12:28:04;8.67;;;2.30;;
16660;SDS011;8444;52.012;5.048;2023-05-24T12:30:29;7.28;;;1.63;;
16660;SDS011;8444;52.012;5.048;2023-05-24T12:32:55;5.97;;;2.15;;
16660;SDS011;8444;52.012;5.048;2023-05-24T12:35:21;6.03;;;1.77;;
16660;SDS011;8444;52.012;5.048;2023-05-24T12:37:46;4.72;;;2.00;;
16660;SDS011;8444;52.012;5.048;2023-05-24T12:40:19;4.95;;;1.63;;
16660;SDS011;8444;52.012;5.048;2023-05-24T12:42:54;9.70;;;2.53;;
16660;SDS011;8444;52.012;5.048;2023-05-24T12:45:23;8.25;;;1.80;;
16660;SDS011;8444;52.012;5.048;2023-05-24T12:47:53;7.50;;;2.13;;
16660;SDS011;8444;52.012;5.048;2023-05-24T12:50:18;4.25;;;1.83;;
16660;SDS011;8444;52.012;5.048;2023-05-24T12:52:44;6.97;;;2.40;;
16660;SDS011;8444;52.012;5.048;2023-05-24T12:55:15;4.82;;;2.17;;
16660;SDS011;8444;52.012;5.048;2023-05-24T12:57:40;7.03;;;2.10;;
16660;SDS011;8444;52.012;5.048;2023-05-24T13:00:06;6.80;;;2.05;;
16660;SDS011;8444;52.012;5.048;2023-05-24T13:02:32;6.65;;;1.85;;
16660;SDS011;8444;52.012;5.048;2023-05-24T13:04:57;8.02;;;2.28;;
16660;SDS011;8444;52.012;5.048;2023-05-24T13:07:22;4.50;;;1.47;;
16660;SDS011;8444;52.012;5.048;2023-05-24T13:09:47;4.80;;;2.17;;
16660;SDS011;8444;52.012;5.048;2023-05-24T13:12:13;5.28;;;1.80;;
16660;SDS011;8444;52.012;5.048;2023-05-24T13:14:38;7.80;;;1.85;;
16660;SDS011;8444;52.012;5.048;2023-05-24T13:17:03;6.00;;;1.83;;
16660;SDS011;8444;52.012;5.048;2023-05-24T13:19:28;7.30;;;2.08;;
16660;SDS011;8444;52.012;5.048;2023-05-24T13:21:54;8.13;;;2.30;;
16660;SDS011;8444;52.012;5.048;2023-05-24T13:24:19;6.43;;;2.10;;
16660;SDS011;8444;52.012;5.048;2023-05-24T13:26:44;6.85;;;2.58;;
16660;SDS011;8444;52.012;5.048;2023-05-24T13:29:11;7.78;;;1.80;;
16660;SDS011;8444;52.012;5.048;2023-05-24T13:31:36;10.40;;;2.45;;
16660;SDS011;8444;52.012;5.048;2023-05-24T13:34:02;7.63;;;2.08;;
16660;SDS011;8444;52.012;5.048;2023-05-24T13:36:27;7.70;;;2.20;;
16660;SDS011;8444;52.012;5.048;2023-05-24T13:38:52;6.88;;;1.85;;
16660;SDS011;8444;52.012;5.048;2023-05-24T13:41:18;6.53;;;1.98;;
16660;SDS011;8444;52.012;5.048;2023-05-24T13:43:43;10.07;;;2.15;;
16660;SDS011;8444;52.012;5.048;2023-05-24T13:46:09;6.15;;;1.25;;
16660;SDS011;8444;52.012;5.048;2023-05-24T13:48:34;6.97;;;1.90;;
16660;SDS011;8444;52.012;5.048;2023-05-24T13:51:00;4.85;;;2.15;;
16660;SDS011;8444;52.012;5.048;2023-05-24T13:53:25;9.05;;;1.58;;
16660;SDS011;8444;52.012;5.048;2023-05-24T13:55:50;7.90;;;1.88;;
16660;SDS011;8444;52.012;5.048;2023-05-24T13:58:16;5.70;;;1.48;;
16660;SDS011;8444;52.012;5.048;2023-05-24T14:00:41;6.55;;;2.30;;
16660;SDS011;8444;52.012;5.048;2023-05-24T14:03:06;2.70;;;1.50;;
16660;SDS011;8444;52.012;5.048;2023-05-24T14:05:32;4.55;;;1.80;;
16660;SDS011;8444;52.012;5.048;2023-05-24T14:07:57;4.97;;;1.90;;
16660;SDS011;8444;52.012;5.048;2023-05-24T14:10:28;4.97;;;1.67;;
16660;SDS011;8444;52.012;5.048;2023-05-24T14:12:53;8.95;;;2.17;;
16660;SDS011;8444;52.012;5.048;2023-05-24T14:15:18;4.22;;;1.60;;
16660;SDS011;8444;52.012;5.048;2023-05-24T14:17:43;10.13;;;1.43;;
16660;SDS011;8444;52.012;5.048;2023-05-24T14:20:09;3.95;;;1.98;;
16660;SDS011;8444;52.012;5.048;2023-05-24T14:22:34;6.28;;;1.83;;
16660;SDS011;8444;52.012;5.048;2023-05-24T14:24:59;7.93;;;2.17;;
16660;SDS011;8444;52.012;5.048;2023-05-24T14:27:25;6.15;;;1.50;;
16660;SDS011;8444;52.012;5.048;2023-05-24T14:29:50;5.30;;;1.65;;
16660;SDS011;8444;52.012;5.048;2023-05-24T14:32:15;6.15;;;1.73;;
16660;SDS011;8444;52.012;5.048;2023-05-24T14:34:41;5.72;;;1.50;;
16660;SDS011;8444;52.012;5.048;2023-05-24T14:37:06;5.32;;;2.47;;
16660;SDS011;8444;52.012;5.048;2023-05-24T14:39:32;2.25;;;1.60;;
16660;SDS011;8444;52.012;5.048;2023-05-24T14:41:57;4.13;;;1.27;;
16660;SDS011;8444;52.012;5.048;2023-05-24T14:44:22;6.00;;;1.60;;
16660;SDS011;8444;52.012;5.048;2023-05-24T14:46:47;4.32;;;1.83;;
16660;SDS011;8444;52.012;5.048;2023-05-24T14:49:13;2.90;;;1.57;;
16660;SDS011;8444;52.012;5.048;2023-05-24T14:51:38;4.00;;;1.33;;
16660;SDS011;8444;52.012;5.048;2023-05-24T14:54:03;6.68;;;1.60;;
16660;SDS011;8444;52.012;5.048;2023-05-24T14:56:28;5.68;;;1.27;;
16660;SDS011;8444;52.012;5.048;2023-05-24T14:58:54;4.15;;;1.42;;
16660;SDS011;8444;52.012;5.048;2023-05-24T15:01:19;5.53;;;1.80;;
16660;SDS011;8444;52.012;5.048;2023-05-24T15:03:44;2.78;;;1.48;;